Metar Cercanos

 

LEPA - Palma De Mallorc, Spain
Distance from station: ONO 38km
Actualización: Mon, 22-Apr-2024 9:00pm CEST
Muy nuboso
Muy nuboso
 Viento del NNE
Viento: NNE 7 km/h
Temperatura: 9°C
Sensación frio: 8°C
Rocío: 7°C
Humedad: 87%
Barómetro: 1017 hPa
Clouds: Muy nuboso
Visibility: 10 km
Cloud details: Few Clouds 549 m
Muy nuboso 1494 m
2024/04/22 19:00 LEPA 221900Z 03004KT 9999 FEW018 BKN049 09/07 Q1017 NOSIG
LEMH - Mahon/Menorca Is, Spain
Distance from station: ENE 105km
Actualización: Mon, 22-Apr-2024 9:00pm CEST
Few Clouds
Few Clouds
 Viento del N
Viento: N 24 km/h
Temperatura: 12°C
Rocío: 0°C
Humedad: 44%
Barómetro: 1016 hPa
Clouds: Few Clouds
Visibility: 10 km
Cloud details: Few Clouds 914 m
2024/04/22 19:00 LEMH 221900Z 01013KT 9999 FEW030 12/M00 Q1016
 
LEIB - Ibiza/Es Codola, Spain
Distance from station: OSO 165km
Actualización: Mon, 22-Apr-2024 9:00pm CEST
Muy nuboso
Muy nuboso
 Viento del E
Viento: E 24 km/h
Temperatura: 11°C
Rocío: 8°C
Humedad: 82%
Barómetro: 1017 hPa
Clouds: Muy nuboso
Visibility: 10 km
Cloud details: Parcialmente nuboso 549 m
Muy nuboso 610 m
2024/04/22 19:00 LEIB 221900Z 08013KT 050V110 9999 SCT018 BKN020 11/08 Q1017 NOSIG
LEBL - Barcelona Airpor, Spain
Distance from station: NNO 225km
Actualización: Mon, 22-Apr-2024 9:00pm CEST
Lluvia, Cubierto
Lluvia, Cubierto
 Viento del SSE
Viento: SSE 13 km/h
Temperatura: 10°C
Sensación frio: 8°C
Rocío: 7°C
Humedad: 82%
Barómetro: 1016 hPa
Resumen: Lluvia
Clouds: Cubierto
Visibility: 9 km
Cloud details: Parcialmente nuboso 610 m
Few Clouds 914 m
Cubierto 1219 m
2024/04/22 19:00 LEBL 221900Z 15007KT 040V200 9000 RA SCT020 FEW030CB OVC040 10/07 Q1016 RETS NOSIG
 
LEVC - Valencia (civ/Mi, Spain
Distance from station: NO 188km
Actualización: Mon, 22-Apr-2024 9:00pm CEST
Parcialmente nuboso
Parcialmente nuboso
 Viento del SE
Viento: SE 15 km/h
Temperatura: 14°C
Rocío: 9°C
Humedad: 72%
Barómetro: 1016 hPa
Clouds: Parcialmente nuboso
Visibility: 10 km
Cloud details: Parcialmente nuboso 610 m
Parcialmente nuboso 1219 m
2024/04/22 19:00 LEVC 221900Z 14008KT 9999 SCT020 SCT040 14/09 Q1016 NOSIG
LEGE - Gerona/Costa Bra, Spain
Distance from station: N 276km
Actualización: Mon, 22-Apr-2024 9:00pm CEST
Muy nuboso
Muy nuboso
 Viento del S
Viento: S 13 km/h
Temperatura: 11°C
Rocío: 3°C
Humedad: 58%
Barómetro: 1015 hPa
Clouds: Muy nuboso
Visibility: 10 km
Cloud details: Parcialmente nuboso 2134 m
Muy nuboso 2743 m
2024/04/22 19:00 LEGE 221900Z 19007KT 9999 SCT070 BKN090 11/03 Q1015
 
LEAL - Alicante/El Alte, Spain
Distance from station: OSO 344km
Actualización: Mon, 22-Apr-2024 9:00pm CEST
Muy nuboso
Muy nuboso
 Viento del E
Viento: E 28 km/h
Temperatura: 16°C
Rocío: 11°C
Humedad: 72%
Barómetro: 1015 hPa
Clouds: Muy nuboso
Visibility: 10 km
Cloud details: Few Clouds 762 m
Muy nuboso 1463 m
2024/04/22 19:00 LEAL 221900Z 08015KT 9999 FEW025 BKN048 16/11 Q1015 NOSIG
LEAM - Almeria Airport, Spain
Distance from station: SSO 56km
Actualización: Mon, 22-Apr-2024 9:00pm CEST
Muy nuboso
Muy nuboso
 Viento del SE
Viento: SE 6 km/h
Temperatura: 18°C
Rocío: 13°C
Humedad: 73%
Barómetro: 1013 hPa
Clouds: Muy nuboso
Visibility: 10 km
Cloud details: Muy nuboso 610 m
2024/04/22 19:00 LEAM 221900Z 13003KT 100V160 9999 BKN020 18/13 Q1013
 
LEZG - Zaragoza (mil/Ci, Spain
Distance from station: NO 431km
Actualización: Mon, 22-Apr-2024 9:00pm CEST
Despejado
Despejado
 Viento del ONO
Viento: ONO 41 km/h, Racha: 65 km/h
Temperatura: 11°C
Rocío: -2°C
Humedad: 41%
Barómetro: 1017 hPa
Resumen: Despejado
Visibility: greater than 10 km
2024/04/22 19:00 LEZG 221900Z 30022G35KT CAVOK 11/M02 Q1017
LEMD - Madrid/Barajas, Spain
Distance from station: ONO 234km
Actualización: Mon, 22-Apr-2024 9:00pm CEST
Despejado
Despejado
 Viento del N
Viento: N 22 km/h
Temperatura: 14°C
Rocío: -5°C
Humedad: 27%
Barómetro: 1016 hPa
Resumen: Despejado
Visibility: greater than 10 km
2024/04/22 19:00 LEMD 221900Z 35012KT CAVOK 14/M05 Q1016 NOSIG
 
LEGR - Granada Airport, Spain
Distance from station: OSO 62km
Actualización: Mon, 22-Apr-2024 9:00pm CEST
Few Clouds
Few Clouds
 Viento del NO
Viento: NO 13 km/h
Temperatura: 19°C
Rocío: 8°C
Humedad: 49%
Barómetro: 1013 hPa
Clouds: Few Clouds
Visibility: 10 km
Cloud details: Few Clouds 1524 m
2024/04/22 19:00 LEGR 221900Z 31007KT 9999 FEW050 19/08 Q1013
LEMG - Malaga (civ/Mil), Spain
Distance from station: OSO 227km
Actualización: Mon, 22-Apr-2024 9:00pm CEST
Few Clouds
Few Clouds
 Viento del E
Viento: E 11 km/h
Temperatura: 18°C
Rocío: 14°C
Humedad: 78%
Barómetro: 1012 hPa
Clouds: Few Clouds
Visibility: 10 km
Cloud details: Few Clouds 2438 m
2024/04/22 19:00 LEMG 221900Z 10006KT 060V130 9999 FEW080 18/14 Q1012 NOSIG
 
LEZL - Sevilla (civ/Mil, Spain
Distance from station: S 318km
Actualización: Mon, 22-Apr-2024 9:00pm CEST
Despejado
Despejado
 Viento del SO
Viento: SO 11 km/h
Temperatura: 23°C
Rocío: 14°C
Humedad: 57%
Barómetro: 1011 hPa
Resumen: Despejado
Visibility: greater than 10 km
2024/04/22 19:00 LEZL 221900Z 23006KT 190V270 CAVOK 23/14 Q1011 NOSIG
LEVT - Vitoria, Spain
Distance from station: NO 226km
Actualización: Mon, 22-Apr-2024 9:00pm CEST
Parcialmente nuboso
Parcialmente nuboso
 Viento del N
Viento: N 17 km/h
Temperatura: 6°C
Sensación frio: 3°C
Rocío: -1°C
Humedad: 61%
Barómetro: 1023 hPa
Clouds: Parcialmente nuboso
Visibility: 10 km
Cloud details: Few Clouds 1189 m
Parcialmente nuboso 1372 m
2024/04/22 19:00 LEVT 221900Z 01009KT 9999 FEW039 SCT045 06/M01 Q1023
 
LEBB - Bilbao/Sondica, Spain
Distance from station: NNO 235km
Actualización: Mon, 22-Apr-2024 9:00pm CEST
Parcialmente nuboso
Parcialmente nuboso
 Viento del NNO
Viento: NNO 7 km/h
Temperatura: 11°C
Rocío: 2°C
Humedad: 54%
Barómetro: 1025 hPa
Clouds: Parcialmente nuboso
Visibility: 10 km
Cloud details: Parcialmente nuboso 1646 m
2024/04/22 19:00 LEBB 221900Z 33004KT 300V360 9999 SCT054 11/02 Q1025 NOSIG
LESO - San Sebastian/Fu, Spain
Distance from station: N 231km
Actualización: Mon, 22-Apr-2024 9:00pm CEST
Muy nuboso
Muy nuboso
 Viento del NNO
Viento: NNO 11 km/h
Temperatura: 12°C
Rocío: 3°C
Humedad: 54%
Barómetro: 1024 hPa
Clouds: Muy nuboso
Visibility: 10 km
Cloud details: Few Clouds 1219 m
Muy nuboso 1676 m
2024/04/22 19:00 LESO 221900Z 33006KT 280V030 9999 FEW040 BKN055 12/03 Q1024
 
LEVD - Valladolid(Mil/C, Spain
Distance from station: ONO 239km
Actualización: Mon, 22-Apr-2024 9:00pm CEST
Despejado
Despejado
 Viento del ENE
Viento: ENE 22 km/h
Temperatura: 7°C
Sensación frio: 4°C
Rocío: -6°C
Humedad: 39%
Barómetro: 1020 hPa
Resumen: Despejado
Visibility: greater than 10 km
2024/04/22 19:00 LEVD 221900Z 07012KT CAVOK 07/M06 Q1020
LESA - Salamanca (civ/M, Spain
Distance from station: ONO 349km
Actualización: Mon, 22-Apr-2024 9:00pm CEST
Despejado
Despejado
 Viento del E
Viento: E 26 km/h
Temperatura: 12°C
Rocío: -3°C
Humedad: 35%
Barómetro: 1019 hPa
Resumen: Despejado
Visibility: greater than 10 km
2024/04/22 19:00 LESA 221900Z AUTO 08014KT CAVOK 12/M03 Q1019
 
LEXJ - Santander/Paraya, Spain
Distance from station: NNO 247km
Actualización: Mon, 22-Apr-2024 9:00pm CEST
Parcialmente nuboso
Parcialmente nuboso
 Viento del N
Viento: N 9 km/h
Temperatura: 11°C
Rocío: 1°C
Humedad: 50%
Barómetro: 1025 hPa
Clouds: Parcialmente nuboso
Visibility: 10 km
Cloud details: Parcialmente nuboso 1433 m
2024/04/22 19:00 LEXJ 221900Z 36005KT 320V060 9999 SCT047 11/01 Q1025
LEAS - Asturias/Aviles, Spain
Distance from station: NO 214km
Actualización: Mon, 22-Apr-2024 9:00pm CEST
Few Clouds
Few Clouds
 Viento del E
Viento: E 15 km/h
Temperatura: 10°C
Sensación frio: 8°C
Rocío: 3°C
Humedad: 62%
Barómetro: 1025 hPa
Clouds: Few Clouds
Visibility: 10 km
Cloud details: Few Clouds 1067 m
2024/04/22 19:00 LEAS 221900Z 09008KT 050V120 9999 FEW035 10/03 Q1025 NOSIG
 
LECO - La Coruna/Alvedr, Spain
Distance from station: ONO 222km
Actualización: Mon, 22-Apr-2024 9:00pm CEST
Despejado
Despejado
 Viento del ENE
Viento: ENE 22 km/h
Temperatura: 13°C
Rocío: 1°C
Humedad: 44%
Barómetro: 1022 hPa
Resumen: Despejado
Visibility: greater than 10 km
2024/04/22 19:00 LECO 221900Z 07012KT 040V100 CAVOK 13/01 Q1022 NOSIG
LEVX - Vigo/Peinador, Spain
Distance from station: O 214km
Actualización: Mon, 22-Apr-2024 9:00pm CEST
Despejado
Despejado
 Viento del N
Viento: N 20 km/h
Temperatura: 19°C
Rocío: 4°C
Humedad: 37%
Barómetro: 1017 hPa
Resumen: Despejado
Visibility: greater than 10 km
2024/04/22 19:00 LEVX 221900Z 01011KT CAVOK 19/04 Q1017 NOSIG